Skip to main content
Select platform

Nasdaq 100

Alles wat u moet weten over de Nasdaq 100: Van de actuele koers en de grafiek tot een overzicht van de grootste stijgers en dalers van de Nasdaq 100. Bestudeer het laatste nieuws, analyses en lees alles wat u moet weten over deze index en uit welke aandelen deze bestaat. Bent u op zoek naar een broker om wereldwijd te handelen op meer dan 100 beurzen in 30+ landen, klik dan hier.

Realtime Nasdaq 100 koers

ISIN: US6311011026
Tickercode: NDX | Beurzen:

Laatste koersupdate:04.09.2026 21:59uur

29527.35

points

Periode: 1 W
43.92 points
0.15
Hoogste dagkoers
29655.01
Laagste dagkoers
29432.49

Grafiek Nasdaq 100

Stijgers Nasdaq 100

Loading ...

Dalers Nasdaq 100

Loading ...

Een volledig overzicht van alle stijgers en dalers van de dag, het lopende jaar en andere periodes is te vinden op onze Nasdaq 100 Stijgers en Dalers pagina.

Andere indices

Nasdaq 100: huidige situatie op de beurs

Meer informatie over het index Nasdaq 100

Nasdaq 100 koers

Laatste handelskoers 29.527,35
Verandering in punten 43.919999999998
Verandering in % 0.14896502883144
Datum / Tijd 04.09.26 | 21:59
Beurzen 2,00
Openingskoers 29.483,43
Slotkoers vorige handelsdag 29.483,43
Hoogste dagkoers 29.655,01
Laagste dagkoers 29.432,49
Hoogste jaarkoers 30.757,42
Laagste jaarkoers 22.846,75
Valuta points
Loading ...

Individuele aandelen uit de Nasdaq 100: koersen, analyses & nieuws

Loading ...
Nasdaq 100 index Gisteren Koers Hoogste Laagste +/- % Tijd Analyse
T-Mobile US 188,02 181,52 187,71 180,65 -6,50 -3,46 % 22:15
KLA-Tencor Corp. 172,94 185,60 187,36 173,46 12,66 7,32 % 22:15
Mondelez 61,45 61,28 61,84 60,91 -0,17 -0,28 % 22:15
Paychex 125,08 121,71 123,58 121,65 -3,37 -2,69 % 22:15
DexCom 89,71 87,90 89,00 87,65 -1,81 -2,02 % 22:15
Datadog 214,76 212,93 214,71 210,95 -1,83 -0,85 % 22:15
Amazon 258,90 258,51 261,12 255,29 -0,39 -0,15 % 22:15
IDEXX Laboratories 529,29 535,38 536,09 522,05 6,09 1,15 % 22:15
AMD 456,16 477,57 478,83 458,00 21,41 4,69 % 22:15
Amgen 444,12 437,23 441,85 435,00 -6,89 -1,55 % 22:15
Applied Materials 435,91 454,71 460,20 443,36 18,80 4,31 % 22:15
Align 158,64 158,57 160,50 155,24 -1,29 -0,80 % 21:59
Autodesk 237,52 217,90 232,14 216,20 -19,62 -8,26 % 22:15
Synopsys 416,31 393,84 418,12 380,33 -22,47 -5,40 % 22:15
Baidu 95,58 99,47 99,64 97,19 3,89 4,07 % 22:15
Palo Alto Networks 331,94 333,26 339,10 328,00 1,32 0,40 % 22:15
Biogen 224,51 220,83 223,82 219,82 -3,68 -1,64 % 22:15
Crowdstrike Holdings 214,97 213,10 218,31 211,32 -1,87 -0,87 % 22:15
Costco Wholesale 925,41 915,74 928,04 914,54 -9,67 -1,04 % 22:15
Okta 170,42 170,60 172,95 167,47 0,18 0,11 % 22:15
Cisco Systems 108,61 109,20 110,36 109,00 0,59 0,54 % 22:15
The Kraft Heinz 25,42 24,85 25,14 24,74 -0,57 -2,24 % 22:15
Dollar Tree 131,04 131,42 133,06 130,88 0,38 0,29 % 22:15
O Reilly Automotive 87,38 87,89 88,19 86,65 0,51 0,58 % 22:15
Electronic Arts 209,91 209,70 210,20 209,70 -0,21 -0,10 % 22:15
Regeneron Pharmaceuticals 843,47 827,72 841,54 825,83 -15,75 -1,87 % 22:15
eBay 105,86 103,41 104,59 103,00 -2,45 -2,31 % 22:15
Charter Communication – A 151,38 151,99 153,66 149,47 0,61 0,40 % 22:15
Meta Platforms 610,68 616,77 617,46 605,27 6,09 1,00 % 22:15
American Electric Power 124,71 124,50 125,50 124,00 -0,21 -0,17 % 22:15
Gilead 151,22 151,00 151,19 149,23 -0,22 -0,15 % 22:15
Xcel Energy 76,34 75,72 76,54 75,45 -0,62 -0,81 % 22:15
Keurig Dr Pepper 32,88 32,59 32,89 32,51 -0,29 -0,88 % 22:00
ASML Holding NV-NY 1.646,19 1.714,88 1.721,66 1.675,93 68,69 4,17 % 22:15
Alphabet 339,08 335,31 340,18 333,75 -3,77 -1,11 % 22:15
Workday 206,92 195,79 206,94 195,40 -11,13 -5,38 % 22:15
Alphabet A 342,48 338,46 343,53 337,09 -4,02 -1,17 % 22:15
Zoom Video Communications 98,14 101,33 102,25 96,86 3,19 3,25 % 22:15
Intel 91,67 95,80 95,94 91,87 4,13 4,51 % 22:15
Airbnb 185,25 181,94 184,51 181,16 -3,31 -1,79 % 22:15
Intuit 344,30 332,70 346,00 330,12 -11,60 -3,37 % 22:15
Marvell 208,83 223,55 223,67 210,87 14,72 7,05 % 22:15
Intuitive Surgical 369,83 366,70 369,55 363,23 -3,13 -0,85 % 22:15
Adobe 285,75 266,51 275,91 263,93 -19,24 -6,73 % 22:15
Lululemon Athletica 121,77 100,61 103,16 97,99 -21,16 -17,38 % 22:15
Marriott International 336,07 336,51 339,30 334,22 0,44 0,13 % 22:15
Monster Beverage 44,08 43,82 44,17 43,65 -0,26 -0,59 % 22:15
Netease 119,29 119,34 120,43 118,75 2,29 1,96 % 21:59
Microsoft 510,12 499,70 511,00 499,36 -10,42 -2,04 % 22:15
Paccar 124,51 124,70 126,49 124,15 0,19 0,15 % 22:15
Micron Technology 958,16 1.016,59 1.017,77 969,00 58,43 6,10 % 22:15
PayPal 56,82 54,96 56,14 54,51 -1,86 -3,27 % 22:15
Netflix 82,67 78,25 82,69 78,23 -4,42 -5,35 % 22:15
Ross Stores 231,67 230,69 233,45 230,06 -0,98 -0,42 % 22:15
NVIDIA 228,45 230,36 234,76 229,63 1,91 0,84 % 22:15
Verisk Analytic CL A 190,60 185,79 188,67 182,50 -4,81 -2,52 % 22:00
NXP 224,99 227,84 228,62 225,01 2,85 1,27 % 22:15
Cintas Corp. 201,05 200,47 201,10 198,01 -0,58 -0,29 % 22:15
Booking Holdings 195,13 193,29 195,55 192,19 -1,84 -0,94 % 22:15
Microchip Technology Inc. 73,11 74,17 74,86 73,21 1,06 1,45 % 22:15
PepsiCo 140,02 137,63 139,47 137,43 -2,39 -1,71 % 22:15
Exelon 44,53 43,64 44,17 43,51 -0,89 -2,00 % 22:15
Qualcomm 168,57 168,74 170,63 167,04 0,17 0,10 % 22:15
VeriSign 293,35 292,08 292,91 286,90 -1,27 -0,43 % 22:15
Starbucks 105,82 104,47 106,30 104,36 -1,35 -1,28 % 22:15
Match Group 41,86 41,85 42,39 41,58 -0,58 -1,37 % 21:59
Skyworks 71,50 74,02 74,80 71,09 2,52 3,52 % 22:00
Fortinet 156,36 156,29 158,47 154,00 -0,07 -0,04 % 22:15
Tesla 376,37 354,08 364,69 351,32 -22,29 -5,92 % 22:15
Cadence Design Systems 304,88 292,70 308,30 287,90 -12,18 -4,00 % 22:15
Texas Instruments 253,83 258,44 261,02 255,50 4,61 1,82 % 22:15
MercadoLibre 1.991,06 1.978,36 1.999,99 1.966,00 -12,70 -0,64 % 22:15
Vertex Pharma 557,96 546,12 556,99 544,48 -11,84 -2,12 % 22:15
Docusign 65,97 68,41 70,40 64,16 2,44 3,70 % 22:15
Broadcom 357,16 357,90 360,16 353,70 0,74 0,21 % 22:15
Moderna 148,87 145,55 154,69 141,52 -3,32 -2,23 % 22:15
Analog Devices 356,50 362,25 364,99 358,99 5,75 1,61 % 22:15
Pinduoduo 81,63 82,21 82,60 81,41 0,58 0,71 % 22:15
Automatic Data Processing 283,53 277,62 280,67 276,45 -5,91 -2,08 % 22:15
Copart 33,58 33,72 33,91 33,01 0,14 0,42 % 22:15
CSX 48,99 49,41 49,68 48,78 0,42 0,86 % 22:15
Zscaler 177,80 169,80 177,14 165,06 -8,00 -4,50 % 22:15
Cognizant Technology Solutions 64,64 62,31 63,95 62,29 -2,33 -3,60 % 22:00
Old Dominion Freight Line 185,87 185,84 187,71 183,32 0,09 0,05 % 21:59
Comcast 26,65 26,49 26,73 26,38 -0,16 -0,60 % 22:15
Fastenal 49,23 49,60 50,42 48,70 0,37 0,75 % 21:59
Illumina 221,66 218,22 219,58 213,95 -3,44 -1,55 % 22:15
Constellation Energy 285,05 298,96 299,73 284,04 13,91 4,88 % 22:15
Apple 328,21 319,97 328,93 317,86 -8,24 -2,51 % 22:42

Nasdaq 100

Nasdaq 100

De Nasdaq 100 koers is een van de meest vooraanstaande en dynamische aandelenindices ter wereld en speelt een essentiële rol in de hedendaagse financiële en technologische landschappen. Deze Nasdaq 100 index omvat de 100 grootste niet-financiële ondernemingen op de Nasdaq-beurs en biedt een uniek inzicht in de innovatieve krachten die de moderne economie vormgeven.

Historische achtergrond en samenstelling

Gelanceerd in februari 1971 met een basis van 100 punten, bestaat de Nasdaq 100 index uit een selectie van Nasdaq 100 bedrijven die pioniers zijn in hun respectievelijke velden. Deze bedrijven vertegenwoordigen een breed scala aan industrieën, van technologie tot biotechnologie en retail, wat de index een gevarieerde en dynamische samenstelling geeft. De koers van de Nasdaq 100 wordt gekenmerkt door zijn marktwaarde gewogen karakter, waarbij de samenstelling en wegingen jaarlijks worden herzien om nauwkeurigheid en relevantie te garanderen. De dominante aanwezigheid van technologiereuzen zoals Alphabet (Google), Amazon, Apple, en Meta Platforms benadrukt de technologie-focus van de Nasdaq 100 index.

Nasdaq 100 koers en globale invloed

De 'koers Nasdaq 100' wordt wereldwijd nauwlettend gevolgd en wordt beschouwd als een barometer voor technologische vooruitgang en beleggerssentiment. De prestaties van de 'Nasdaq 100 koers' zijn indicatief voor zowel de gezondheid van individuele technologiebedrijven als de bredere marktbewegingen. Deze koersinformatie is cruciaal voor beleggingsbeslissingen en biedt inzichten in het toekomstige groeipotentieel van de technologiemarkt.

Nasdaq 100 Futures en Index Futures

De Nasdaq 100 futures en Nasdaq 100 index futures zijn belangrijke instrumenten voor handelaren en beleggers. Deze futures stellen hen in staat om te speculeren op de toekomstige richting van de Nasdaq 100 index en bieden middelen voor risicobeheer. De Nasdaq 100 index futures zijn met name nuttig voor het afdekken tegen marktvolatiliteit en bieden een mate van veiligheid in een onvoorspelbare markt. Ook actieve daghandelaren kunnen met Nasdaq 100 futures aan de slag.

Beleggingsmogelijkheden en Handelstijden

Beleggers die geïnteresseerd zijn in de Nasdaq 100 hebben toegang tot een scala aan investeringsmogelijkheden. De handel in Nasdaq 100 aandelen en de afgeleide producten zoals Nasdaq 100 opties, Nasdaq 100 futures en Nasdaq 100 ETF's biedt kansen voor diversificatie en blootstelling aan toonaangevende technologiebedrijven. De reguliere openingstijden van de Nasdaq, van 15:30 uur tot 22:00 uur Nederlandse tijd, maar de uitgebreidere handelstijden van de Nasdaq 100 futures stellen beleggers in staat vrijwel de hele dag door te handelen. De Nasdaq 100 futures zijn van maandag t/m vrijdag 23 uur per dag verhandelbaar van 00:00 tot 23:00 (CEST).

Beleggen in Nasdaq 100 ETF’s

Beleggen in Nasdaq 100 ETF's (Exchange-Traded Funds) die de Nasdaq 100 index volgen, zoals de bekende Invesco QQQ Trust, is een steeds populairdere optie geworden voor beleggers die streven naar blootstelling aan de meest invloedrijke en innovatieve technologiebedrijven. De Nasdaq 100 ETF's bieden een unieke combinatie van gemak, diversificatie en toegang tot een segment van de markt dat bekend staat om zijn potentieel voor aanzienlijke groei.

Voordelen van beleggen in Nasdaq 100 ETF’s

Een van de grootste voordelen van beleggen in Nasdaq 100 ETF's is de directe diversificatie. Met één enkele transactie krijgt een belegger blootstelling aan de gehele portfolio van top technologiebedrijven die de Nasdaq 100 vormen. Dit vermindert het risico dat gepaard gaat met het investeren in individuele aandelen en biedt een meer gebalanceerde investeringsbenadering. ETF's staan ok bekend om hun lagere kostenratio's in vergelijking met traditionele beleggingsfondsen. Dit betekent dat beleggers minder betalen voor het beheer van hun beleggingen, wat kan leiden tot betere nettorendementen op lange termijn.

Nasdaq 100 bedrijven: drijfveren van innovatie

De Nasdaq 100 bedrijven zijn niet alleen marktleiders, maar ook pioniers in innovatie en technologische ontwikkeling. De diversiteit binnen deze groep zorgt ervoor dat de Nasdaq 100 index representatief is voor de bredere technologie- en innovatiebewegingen in de economie. De prestaties van deze bedrijven zijn cruciaal voor de koers van de Nasdaq 100 en bieden een indicatie van de richting van technologische vooruitgang.

Deze 10 bedrijven behoren tot de grootste in de Nasdaq 100 index, elk met hun eigen unieke focus en specialisatie:

Apple Inc. (AAPL): Apple is een wereldleider in consumentenelektronica, software en diensten. Ze zijn vooral bekend vanwege de iPhone, iPad, en Mac computers, evenals hun iOS en MacOS besturingssystemen.

Microsoft Corporation (MSFT): Microsoft is een technologiebedrijf dat bekend staat om zijn Windows besturingssysteem, Office-productiviteitssuite, en cloud-diensten zoals Azure.

Amazon.com Inc. (AMZN): Amazon is een e-commerce gigant die ook betrokken is bij cloud computing (Amazon Web Services), digitale streaming en kunstmatige intelligentie.

Alphabet Inc. (GOOGL/GOOG): Alphabet is het moederbedrijf van Google, bekend om zijn zoekmachine, advertentiediensten, Android besturingssysteem, en een reeks andere technologieproducten en -diensten.

Facebook, nu bekend als Meta Platforms Inc. (META): Meta is gespecialiseerd in sociale media en digitale netwerken, met platforms zoals Facebook, Instagram, en WhatsApp.

Tesla, Inc. (TSLA): Tesla is een pionier in de productie van elektrische voertuigen en is ook betrokken bij energieopslagoplossingen en zonne-energieproducten.

NVIDIA Corporation (NVDA): NVIDIA is een leider op het gebied van grafische verwerkingstechnologieën, gebruikt in gaming, professionele visualisatie, datacenters en automotive toepassingen.

ASML Holding N.V. (ASML): ASML is een Nederlands bedrijf en een belangrijke leverancier van fotolithografiesystemen die gebruikt worden bij de productie van geïntegreerde schakelingen of chips.

PayPal Holdings, Inc. (PYPL): PayPal biedt digitale betalingsoplossingen en financiële technologieën om elektronische betalingen voor consumenten en bedrijven te vergemakkelijken.

Adobe Inc. (ADBE): Adobe is een softwarebedrijf bekend om zijn creatieve en multimedia softwareproducten, zoals Adobe Photoshop, Adobe Illustrator, en de Adobe Creative Cloud.